Home   Weather   Germany   Waiblingen   Past weeks
Flag for Germany

Past Weather in Waiblingen, Baden-Württemberg, Germany — Yesterday and Last 2 Weeks

Currently: 77 °F. Scattered clouds. (Weather station: Stuttgart-Echterdingen, Germany). See more current weather

Past Weather in Waiblingen — Graph

°F

Waiblingen Temperature Yesterday

Maximum temperature yesterday: 77 °F (at 6:20 pm)
Minimum temperature yesterday: 55 °F (at 4:20 am)
Average temperature yesterday: 66 °F

High & Low Weather Summary for the Past Weeks

 TemperatureHumidityPressure
High84 °F (Jul 23, 6:20 pm)100% (Jul 15, 9:50 pm)30.21 "Hg (Jul 15, 9:50 pm)
Low52 °F (Jul 30, 5:50 am)37% (Jul 23, 3:50 pm)29.80 "Hg (Jul 24, 8:20 pm)
Average68 °F71%30.03 "Hg
* Reported Jul 15 10:20 am — Jul 30 10:20 am, Waiblingen. Weather by CustomWeather, © 2021

Note: Actual official high and low records may vary slightly from our data, if they occured in-between our weather recording intervals... More about our weather records

Waiblingen Weather History for the Previous 24 Hours

Scroll right to see more
 ConditionsComfort  
Time TempWeatherWind HumidityBarometerVisibility
10:20 am
Fri, Jul 30
72 °FSunny.3 mph61%29.92 "Hg10 mi
9:50 am70 °FPassing clouds.5 mph60%29.92 "HgN/A
9:20 am68 °FPassing clouds.5 mph64%29.92 "HgN/A
8:50 am64 °FSunny.2 mph73%29.92 "Hg10 mi
8:20 am63 °FSunny.2 mph77%29.92 "Hg10 mi
7:50 am61 °FSunny.1 mph77%29.92 "Hg10 mi
7:20 am57 °FSunny.1 mph88%29.92 "Hg10 mi
6:50 am55 °FSunny.1 mph88%29.92 "Hg10 mi
6:20 am54 °FSunny.1 mph94%29.92 "Hg10 mi
5:50 am52 °FClear.1 mph100%29.92 "Hg10 mi
5:20 am54 °FClear.1 mph94%29.95 "Hg10 mi
4:50 am54 °FClear.5 mph88%29.95 "Hg10 mi
4:20 am54 °FClear.2 mph94%29.95 "Hg10 mi
3:50 am55 °FClear.2 mph94%29.95 "Hg10 mi
3:20 am55 °FClear.1 mph94%29.95 "Hg10 mi
2:50 am55 °FClear.2 mph88%29.95 "Hg10 mi
2:20 am57 °FClear.5 mph82%29.95 "Hg10 mi
1:50 am57 °FClear.2 mph82%29.95 "Hg10 mi
1:20 am59 °FClear.5 mph82%29.95 "Hg10 mi
12:50 am59 °FClear.2 mph82%29.95 "Hg10 mi
12:20 am59 °FClear.3 mph77%29.95 "Hg10 mi
11:50 pm
Thu, Jul 29
61 °FClear.No wind77%29.95 "Hg10 mi
11:20 pm63 °FClear.3 mph73%29.95 "Hg10 mi
10:50 pm66 °FClear.2 mph64%29.95 "Hg10 mi
10:20 pm66 °FClear.2 mph64%29.95 "Hg10 mi
9:50 pm66 °FClear.3 mph64%29.95 "Hg10 mi
9:20 pm68 °FPassing clouds.3 mph60%29.95 "HgN/A
8:50 pm70 °FSunny.5 mph57%29.95 "Hg10 mi
8:20 pm72 °FSunny.6 mph53%29.95 "Hg10 mi
7:50 pm73 °FPassing clouds.6 mph53%29.95 "HgN/A
7:20 pm75 °FPassing clouds.8 mph47%29.95 "HgN/A
6:50 pm75 °FPassing clouds.9 mph47%29.95 "HgN/A
6:20 pm77 °FPassing clouds.5 mph44%29.95 "HgN/A
5:50 pm75 °FPassing clouds.8 mph47%29.95 "HgN/A
5:20 pm75 °FPassing clouds.9 mph47%29.95 "HgN/A
4:50 pm75 °FPassing clouds.10 mph47%29.95 "HgN/A
4:20 pm75 °FPassing clouds.9 mph47%29.95 "HgN/A
3:50 pm75 °FPassing clouds.9 mph50%29.98 "HgN/A
3:20 pm73 °FPassing clouds.9 mph50%29.98 "HgN/A
2:50 pm73 °FPassing clouds.9 mph50%29.98 "HgN/A
2:20 pm75 °FScattered clouds.12 mph47%29.98 "HgN/A
1:50 pm73 °FScattered clouds.13 mph50%29.98 "HgN/A
1:20 pm73 °FPassing clouds.13 mph50%30.01 "HgN/A
Weather by CustomWeather, © 2021

See weather overview